Avon, MS

8:55 AM CDT on August 01, 2014 (GMT -0500)
Mid Delta Regional (KGLH) Elev 131 ft | 33.48 °N, 90.99 °W | Change Station

Current weather conditions updated 7 minutes ago

Rain
Rain Mist
72 °F
Feels Like 72 °F
N
0
Wind Variable Wind from North

Today is forecast to be Cooler than yesterday. A few thunderstorms possible.

Today
High -- | Low -- °F
--% Chance of Precip.
Yesterday
High -- | Low -- °F
Precip. -- in
6:17 AM 8:03 PM
Waxing Crescent, 26% visible
Pressure 30.05 in
Visibility 1.5 miles
Clouds Scattered Clouds 700 ft
Mostly Cloudy 4700 ft
Overcast 7000 ft
Dew Point 70 °F
Humidity 94%
Rainfall 0.00 in
Snow Depth Not available.
UV 1 out of 12
Pollen 2.10 out of 12
Air Quality Not available.
Flu Activity Not available.
SPECI KGLH 011348Z AUTO 00000KT 1 1/2SM RA BR SCT007 BKN047 OVC070 22/21 A3005 RMK AO2 RAB25 P0003

More Conditions Fewer Conditions

Pressure 30.05 in
Visibility 1.5 miles
Clouds Scattered Clouds 700 ft
Mostly Cloudy 4700 ft
Overcast 7000 ft
Dew Point 70 °F
Humidity 94%
Rainfall 0.00 in
Snow Depth Not available.
UV 1 out of 12
Pollen 2.10 out of 12
Air Quality Not available.
Flu Activity Not available.
SPECI KGLH 011348Z AUTO 00000KT 1 1/2SM RA BR SCT007 BKN047 OVC070 22/21 A3005 RMK AO2 RAB25 P0003

More Conditions Fewer Conditions

10-Day Weather Forecast

Almanac

Astronomy

Aug. 01, 2014 Rise Set
Actual Time 6:17 AM CDT 8:03 PM CDT
Civil Twilight 5:49 AM CDT 8:30 PM CDT
Nautical Twilight 5:17 AM CDT 9:03 PM CDT
Astronomical Twilight 4:42 AM CDT 9:37 PM CDT
Moon 11:22 AM CDT 11:08 PM CDT
Length of Visible Light 14h 40m
Length of Day
13h 46m
Tomorrow will be 1m 33s shorter.
Waxing Crescent, 26% of the Moon is Illuminated
Today
Waxing Crescent
Aug 3
First Quarter
Aug 10
Full
Aug 17
Last Quarter
Aug 25
New

Today's Extremes

State Highs State Lows

Community

WunderPhotos

Upload Photos

1,739,557 photos uploaded!

Nearby

Snow Depth

Station Depth Elevation
No new snow has been reported.

Earthquake Activity

City Distance Mag. Time & Date
No recent earthquake activity has been reported nearby.
Minimum magnitude displayed is 2.5.

Coastal Water Temperatures

Place Temperature
No Stations Reporting

Nearby Weather Stations

Station Location Temp. Dew Point Humidity Wind Precip. Elev Updated Type
MesoWest NORTH ISSAQUENA , Glen Allan, MS 68 °F 65 °F 93% SE  at  1 mph 0.11 in / hr 111 ft 7:00 AM CDT MADIS
MesoWest BEASLEY LAKE , Inverness, MS 71 °F 71 °F 100% NNE  at  0 mph 0.00 in / hr 115 ft 7:00 AM CDT MADIS

Show More Stations Show Fewer Stations